Time;durP1;ratioP1;P1;durP2;ratioP2;P2;SDS_P1;SDS_P2;PMS_P1;PMS_P2;Temp;Humidity;BMP_temperature;BMP_pressure;BME280_temperature;BME280_humidity;BME280_pressure;Samples;Min_cycle;Max_cycle;Signal;HPM_P1;HPM_P2
2024/01/07 00:00:01;;;;;;;1999.90;999.90;;;3.40;99.90;;;;;;5027460;28;20130;-73
2024/01/07 00:02:27;;;;;;;1999.90;999.90;;;3.30;99.90;;;;;;5027378;28;20037;-74
2024/01/07 00:04:52;;;;;;;1999.90;999.90;;;3.40;99.90;;;;;;5028491;28;20108;-73
2024/01/07 00:07:20;;;;;;;1999.90;999.90;;;3.30;99.90;;;;;;5027946;28;20489;-73
2024/01/07 00:09:46;;;;;;;1999.90;999.90;;;3.20;99.90;;;;;;5024188;28;20037;-73
2024/01/07 00:12:11;;;;;;;1999.90;999.90;;;3.30;99.90;;;;;;5024665;28;20048;-72
2024/01/07 00:14:37;;;;;;;1999.90;999.90;;;3.30;99.90;;;;;;5026818;28;20509;-72
2024/01/07 00:17:03;;;;;;;1999.90;999.90;;;3.20;99.90;;;;;;5025509;28;20458;-72
2024/01/07 00:19:31;;;;;;;1999.90;999.90;;;3.10;99.90;;;;;;5030356;28;20029;-71
2024/01/07 00:21:57;;;;;;;1999.90;999.90;;;3.00;99.90;;;;;;5026230;28;20562;-72
2024/01/07 00:24:25;;;;;;;1999.90;999.90;;;3.10;99.90;;;;;;5025883;28;20042;-72
2024/01/07 00:26:51;;;;;;;1999.90;999.90;;;3.10;99.90;;;;;;5024626;28;20021;-73
2024/01/07 00:29:17;;;;;;;1999.90;999.90;;;3.20;99.90;;;;;;5024033;28;20087;-72
2024/01/07 00:31:42;;;;;;;1999.90;999.90;;;3.20;99.90;;;;;;5026511;28;20092;-72
2024/01/07 00:34:08;;;;;;;1999.90;999.90;;;3.00;99.90;;;;;;5027233;28;20068;-72
2024/01/07 00:36:34;;;;;;;1999.90;999.90;;;3.10;99.90;;;;;;5026946;28;20095;-73
2024/01/07 00:38:59;;;;;;;1999.90;999.90;;;3.10;99.90;;;;;;5031476;28;20052;-73
2024/01/07 00:41:25;;;;;;;1999.90;999.90;;;3.20;99.90;;;;;;5025147;28;20041;-73
2024/01/07 00:43:51;;;;;;;1999.90;999.90;;;3.30;99.90;;;;;;5027744;28;20075;-72
2024/01/07 00:46:16;;;;;;;1999.90;999.90;;;3.10;99.90;;;;;;5022126;28;20045;-71
2024/01/07 00:48:42;;;;;;;1999.90;999.90;;;3.20;99.90;;;;;;5023837;28;20111;-72
2024/01/07 00:51:08;;;;;;;1999.90;999.90;;;3.10;99.90;;;;;;5029207;28;20056;-72
2024/01/07 00:53:34;;;;;;;1999.90;999.90;;;3.10;99.90;;;;;;5028168;28;20043;-73
2024/01/07 00:56:02;;;;;;;1999.90;999.90;;;3.30;99.90;;;;;;5026591;28;20033;-72
2024/01/07 00:58:28;;;;;;;1999.90;999.90;;;3.20;99.90;;;;;;5031146;28;20022;-73
2024/01/07 01:00:54;;;;;;;1999.90;999.90;;;3.10;99.90;;;;;;5024148;28;20521;-73
2024/01/07 01:03:20;;;;;;;1999.90;999.90;;;3.20;99.90;;;;;;5032109;28;20033;-73
2024/01/07 01:05:45;;;;;;;1999.90;999.90;;;3.20;99.90;;;;;;5027081;28;20423;-72
2024/01/07 01:08:14;;;;;;;1999.90;999.90;;;3.10;99.90;;;;;;5026410;28;20825;-72
2024/01/07 01:10:40;;;;;;;1999.90;999.90;;;3.10;99.90;;;;;;5027240;28;20040;-71
2024/01/07 01:13:05;;;;;;;1999.90;999.90;;;3.10;99.90;;;;;;5029618;28;20033;-72
2024/01/07 01:15:31;;;;;;;1999.90;999.90;;;3.10;99.90;;;;;;5027826;28;20443;-73
2024/01/07 01:17:58;;;;;;;1999.90;999.90;;;3.10;99.90;;;;;;5024450;28;20040;-73
2024/01/07 01:20:23;;;;;;;1999.90;999.90;;;3.00;99.90;;;;;;5029000;28;20037;-72
2024/01/07 01:22:49;;;;;;;1999.90;999.90;;;3.00;99.90;;;;;;5030811;28;20078;-72
2024/01/07 01:25:14;;;;;;;1999.90;999.90;;;3.20;99.90;;;;;;5030463;28;20049;-71
2024/01/07 01:27:40;;;;;;;1999.90;999.90;;;3.20;99.90;;;;;;5029002;28;20080;-73
2024/01/07 01:30:07;;;;;;;1999.90;999.90;;;3.20;99.90;;;;;;5026881;28;20038;-72
2024/01/07 01:32:32;;;;;;;1999.90;999.90;;;3.10;99.90;;;;;;5028926;28;20022;-73
2024/01/07 01:34:58;;;;;;;1999.90;999.90;;;3.20;99.90;;;;;;5027997;28;20714;-71
2024/01/07 01:37:24;;;;;;;1999.90;999.90;;;3.20;99.90;;;;;;5032847;28;20033;-73
2024/01/07 01:39:49;;;;;;;1999.90;999.90;;;3.20;99.90;;;;;;5029873;28;20034;-73
2024/01/07 01:42:15;;;;;;;1999.90;999.90;;;3.20;99.90;;;;;;5030718;28;20772;-73
2024/01/07 01:44:41;;;;;;;1999.90;999.90;;;3.20;99.90;;;;;;5031221;28;20484;-73
2024/01/07 01:47:08;;;;;;;1999.90;999.90;;;3.20;99.90;;;;;;5028771;28;20065;-73
2024/01/07 01:49:35;;;;;;;1999.90;999.90;;;3.00;99.90;;;;;;5033287;28;20179;-72
2024/01/07 01:52:01;;;;;;;1999.90;999.90;;;3.10;99.90;;;;;;5029914;28;20412;-72
2024/01/07 01:54:27;;;;;;;1999.90;999.90;;;3.00;99.90;;;;;;5027797;28;20045;-73
2024/01/07 01:56:53;;;;;;;1999.90;999.90;;;2.90;99.90;;;;;;5029767;28;20026;-72
2024/01/07 01:59:37;;;;;;;1999.90;999.90;;;2.90;99.90;;;;;;5032920;28;20041;-71
2024/01/07 02:02:03;;;;;;;1999.90;999.90;;;3.10;99.90;;;;;;5029574;28;20021;-73
2024/01/07 02:04:29;;;;;;;1999.90;999.90;;;3.00;99.90;;;;;;5025342;28;20684;-72
2024/01/07 02:06:54;;;;;;;1999.90;999.90;;;3.00;99.90;;;;;;5031008;28;20056;-73
2024/01/07 02:09:20;;;;;;;1999.90;999.90;;;3.00;99.90;;;;;;5030532;28;20034;-73
2024/01/07 02:12:01;;;;;;;1999.90;999.90;;;2.90;99.90;;;;;;5029266;28;20116;-72
2024/01/07 02:14:27;;;;;;;1999.90;999.90;;;2.90;99.90;;;;;;5028405;28;20045;-71
2024/01/07 02:16:53;;;;;;;1999.90;999.90;;;2.90;99.90;;;;;;5025929;28;20114;-71
2024/01/07 02:19:37;;;;;;;1999.90;999.90;;;3.00;99.90;;;;;;5028959;28;20041;-72
2024/01/07 02:22:03;;;;;;;1999.90;999.90;;;2.90;99.90;;;;;;5031411;28;20029;-71
2024/01/07 02:24:30;;;;;;;1999.90;999.90;;;2.90;99.90;;;;;;5031374;28;20181;-73
2024/01/07 02:26:56;;;;;;;1999.90;999.90;;;3.00;99.90;;;;;;5029509;28;20108;-72
2024/01/07 02:29:22;;;;;;;1999.90;999.90;;;2.90;99.90;;;;;;5029153;28;20059;-71
2024/01/07 02:31:47;;;;;;;1999.90;999.90;;;3.00;99.90;;;;;;5028248;28;20491;-71
2024/01/07 02:34:13;;;;;;;1999.90;999.90;;;3.00;99.90;;;;;;5030979;28;20127;-72
2024/01/07 02:36:39;;;;;;;1999.90;999.90;;;3.10;99.90;;;;;;5034441;28;20033;-72
2024/01/07 02:39:04;;;;;;;1999.90;999.90;;;3.10;99.90;;;;;;5029594;28;20021;-71
2024/01/07 02:41:30;;;;;;;1999.90;999.90;;;3.10;99.90;;;;;;5031019;28;20033;-72
2024/01/07 02:43:55;;;;;;;1999.90;999.90;;;3.00;99.90;;;;;;5028849;28;20052;-73
2024/01/07 02:46:23;;;;;;;1999.90;999.90;;;2.90;99.90;;;;;;5029141;28;20171;-72
2024/01/07 02:48:49;;;;;;;1999.90;999.90;;;3.00;99.90;;;;;;5028826;28;20068;-72
2024/01/07 02:51:15;;;;;;;1999.90;999.90;;;3.00;99.90;;;;;;5031421;28;20056;-73
2024/01/07 02:53:40;;;;;;;1999.90;999.90;;;3.00;99.90;;;;;;5032332;28;20037;-72
2024/01/07 02:56:09;;;;;;;1999.90;999.90;;;2.90;99.90;;;;;;5028730;28;20465;-71
2024/01/07 02:58:34;;;;;;;1999.90;999.90;;;2.90;99.90;;;;;;5032156;28;20032;-71
2024/01/07 03:01:00;;;;;;;1999.90;999.90;;;2.90;99.90;;;;;;5030814;28;20029;-70
2024/01/07 03:03:26;;;;;;;1999.90;999.90;;;3.00;99.90;;;;;;5027160;28;20037;-72
2024/01/07 03:05:51;;;;;;;1999.90;999.90;;;3.00;99.90;;;;;;5025485;28;20049;-71
2024/01/07 03:08:17;;;;;;;1999.90;999.90;;;2.90;99.90;;;;;;5031063;28;20532;-73
2024/01/07 03:10:43;;;;;;;1999.90;999.90;;;2.90;99.90;;;;;;5027282;28;20037;-71
2024/01/07 03:13:08;;;;;;;1999.90;999.90;;;2.90;99.90;;;;;;5029126;28;20079;-72
2024/01/07 03:15:34;;;;;;;1999.90;999.90;;;2.80;99.90;;;;;;5024294;28;20032;-71
2024/01/07 03:18:00;;;;;;;1999.90;999.90;;;2.80;99.90;;;;;;5026562;28;20072;-71
2024/01/07 03:20:25;;;;;;;1999.90;999.90;;;2.80;99.90;;;;;;5028136;28;20060;-73
2024/01/07 03:22:51;;;;;;;1999.90;999.90;;;2.80;99.90;;;;;;5030371;28;20037;-72
2024/01/07 03:25:17;;;;;;;1999.90;999.90;;;3.00;99.90;;;;;;5031356;28;20045;-72
2024/01/07 03:27:42;;;;;;;1999.90;999.90;;;2.80;99.90;;;;;;5027177;28;20038;-72
2024/01/07 03:30:09;;;;;;;1999.90;999.90;;;2.80;99.90;;;;;;5028172;28;20041;-71
2024/01/07 03:32:35;;;;;;;1999.90;999.90;;;2.90;99.90;;;;;;5025497;28;20033;-73
2024/01/07 03:35:02;;;;;;;1999.90;999.90;;;2.90;99.90;;;;;;5027262;28;20025;-72
2024/01/07 03:37:27;;;;;;;1999.90;999.90;;;2.80;99.90;;;;;;5028288;28;20037;-73
2024/01/07 03:39:53;;;;;;;1999.90;999.90;;;2.80;99.90;;;;;;5028647;28;20795;-72
2024/01/07 03:42:19;;;;;;;1999.90;999.90;;;2.80;99.90;;;;;;5030193;28;20526;-71
2024/01/07 03:44:45;;;;;;;1999.90;999.90;;;2.80;99.90;;;;;;5025152;28;20579;-73
2024/01/07 03:47:10;;;;;;;1999.90;999.90;;;2.90;99.90;;;;;;5027124;28;20594;-72
2024/01/07 03:49:37;;;;;;;1999.90;999.90;;;2.90;99.90;;;;;;5027996;28;20039;-73
2024/01/07 03:52:04;;;;;;;1999.90;999.90;;;2.90;99.90;;;;;;5029570;28;20159;-72
2024/01/07 03:54:30;;;;;;;1999.90;999.90;;;2.90;99.90;;;;;;5027406;28;20029;-73
2024/01/07 03:56:56;;;;;;;1999.90;999.90;;;2.90;99.90;;;;;;5028040;28;20031;-72
2024/01/07 03:59:23;;;;;;;1999.90;999.90;;;2.90;99.90;;;;;;5027205;28;20187;-72
2024/01/07 04:01:48;;;;;;;1999.90;999.90;;;2.80;99.90;;;;;;5028611;28;20049;-74
2024/01/07 04:04:14;;;;;;;1999.90;999.90;;;2.80;99.90;;;;;;5022705;28;20491;-72
2024/01/07 04:06:40;;;;;;;1999.90;999.90;;;2.80;99.90;;;;;;5029142;28;20583;-72
2024/01/07 04:09:06;;;;;;;1999.90;999.90;;;2.90;99.90;;;;;;5028156;28;20033;-72
2024/01/07 04:11:31;;;;;;;1999.90;999.90;;;2.90;99.90;;;;;;5029603;28;20043;-72
2024/01/07 04:13:57;;;;;;;1999.90;999.90;;;2.80;99.90;;;;;;5031032;28;20388;-72
2024/01/07 04:16:23;;;;;;;1999.90;999.90;;;2.70;99.90;;;;;;5027742;28;20561;-72
2024/01/07 04:18:48;;;;;;;1999.90;999.90;;;2.80;99.90;;;;;;5030297;28;20025;-72
2024/01/07 04:21:14;;;;;;;1999.90;999.90;;;2.70;99.90;;;;;;5022578;28;20439;-73
2024/01/07 04:23:43;;;;;;;1999.90;999.90;;;2.80;99.90;;;;;;5027873;28;20041;-72
2024/01/07 04:26:09;;;;;;;1999.90;999.90;;;2.80;99.90;;;;;;5025801;28;20033;-73
2024/01/07 04:28:35;;;;;;;1999.90;999.90;;;2.60;99.90;;;;;;5027977;28;20043;-72
2024/01/07 04:31:01;;;;;;;1999.90;999.90;;;2.70;99.90;;;;;;5028317;28;20479;-72
2024/01/07 04:33:27;;;;;;;1999.90;999.90;;;2.70;99.90;;;;;;5029080;28;20062;-72
2024/01/07 04:35:57;;;;;;;1999.90;999.90;;;2.70;99.90;;;;;;5025289;28;20120;-73
2024/01/07 04:38:23;;;;;;;1999.90;999.90;;;2.60;99.90;;;;;;5027343;28;20041;-72
2024/01/07 04:40:49;;;;;;;1999.90;999.90;;;2.60;99.90;;;;;;5025873;28;20385;-72
2024/01/07 04:43:14;;;;;;;1999.90;999.90;;;2.60;99.90;;;;;;5027730;28;20040;-72
2024/01/07 04:45:40;;;;;;;1999.90;999.90;;;2.40;99.90;;;;;;5029725;28;20040;-73
2024/01/07 04:48:06;;;;;;;1999.90;999.90;;;2.50;99.90;;;;;;5027584;28;20045;-72
2024/01/07 04:50:32;;;;;;;1999.90;999.90;;;2.50;99.90;;;;;;5026854;28;20036;-72
2024/01/07 04:52:57;;;;;;;1999.90;999.90;;;2.50;99.90;;;;;;5026402;28;20029;-73
2024/01/07 04:55:23;;;;;;;1999.90;999.90;;;2.60;99.90;;;;;;5027321;28;20060;-73
2024/01/07 04:57:49;;;;;;;1999.90;999.90;;;2.50;99.90;;;;;;5025118;28;20053;-69
2024/01/07 05:00:15;;;;;;;1999.90;999.90;;;2.50;99.90;;;;;;5026452;28;20282;-70
2024/01/07 05:02:40;;;;;;;1999.90;999.90;;;2.40;99.90;;;;;;5028673;28;20510;-69
2024/01/07 05:05:08;;;;;;;1999.90;999.90;;;2.60;99.90;;;;;;5026861;28;20033;-70
2024/01/07 05:07:34;;;;;;;1999.90;999.90;;;2.30;99.90;;;;;;5024836;28;20514;-69
2024/01/07 05:09:59;;;;;;;1999.90;999.90;;;2.40;99.90;;;;;;5024045;28;20038;-69
2024/01/07 05:12:25;;;;;;;1999.90;999.90;;;2.40;99.90;;;;;;5024621;28;20029;-69
2024/01/07 05:14:51;;;;;;;1999.90;999.90;;;2.50;99.90;;;;;;5025027;28;20126;-70
2024/01/07 05:17:20;;;;;;;1999.90;999.90;;;2.50;99.90;;;;;;5029229;28;20042;-69
2024/01/07 05:19:46;;;;;;;1999.90;999.90;;;2.40;99.90;;;;;;5024017;28;20041;-74
2024/01/07 05:22:11;;;;;;;1999.90;999.90;;;2.30;99.90;;;;;;5024489;28;20542;-72
2024/01/07 05:24:38;;;;;;;1999.90;999.90;;;2.30;99.90;;;;;;5026583;28;20045;-84
2024/01/07 05:27:04;;;;;;;1999.90;999.90;;;2.30;99.90;;;;;;5027221;28;20693;-81
2024/01/07 05:29:30;;;;;;;1999.90;999.90;;;2.30;99.90;;;;;;5027443;28;20539;-77
2024/01/07 05:31:56;;;;;;;1999.90;999.90;;;2.30;99.90;;;;;;5025144;28;20037;-75
2024/01/07 05:34:21;;;;;;;1999.90;999.90;;;2.20;99.90;;;;;;5023786;28;20037;-77
2024/01/07 05:36:47;;;;;;;1999.90;999.90;;;2.20;99.90;;;;;;5022977;28;20384;-76
2024/01/07 05:39:13;;;;;;;1999.90;999.90;;;2.20;99.90;;;;;;5022673;28;20411;-75
2024/01/07 05:41:38;;;;;;;1999.90;999.90;;;2.40;99.90;;;;;;5022971;28;20525;-75
2024/01/07 05:44:09;;;;;;;1999.90;999.90;;;2.30;99.90;;;;;;5030635;28;20025;-76
2024/01/07 05:46:39;;;;;;;1999.90;999.90;;;2.20;99.90;;;;;;5020936;28;20504;-76
2024/01/07 05:49:05;;;;;;;1999.90;999.90;;;2.20;99.90;;;;;;5025349;28;20056;-76
2024/01/07 05:51:31;;;;;;;1999.90;999.90;;;2.20;99.90;;;;;;5027035;28;20579;-75
2024/01/07 05:53:56;;;;;;;1999.90;999.90;;;2.20;99.90;;;;;;5030838;28;20026;-76
2024/01/07 05:56:22;;;;;;;1999.90;999.90;;;2.20;99.90;;;;;;5026387;28;20026;-77
2024/01/07 05:58:48;;;;;;;1999.90;999.90;;;2.20;99.90;;;;;;5026054;28;20041;-78
2024/01/07 06:01:21;;;;;;;1999.90;999.90;;;2.20;99.90;;;;;;5027427;28;20475;-77
2024/01/07 06:03:47;;;;;;;1999.90;999.90;;;2.30;99.90;;;;;;5025347;28;20507;-77
2024/01/07 06:06:14;;;;;;;1999.90;999.90;;;2.20;99.90;;;;;;5030636;28;20076;-78
2024/01/07 06:08:41;;;;;;;1999.90;999.90;;;2.30;99.90;;;;;;5035015;28;20061;-76
2024/01/07 06:11:07;;;;;;;1999.90;999.90;;;2.30;99.90;;;;;;5026899;28;20869;-76
2024/01/07 06:13:32;;;;;;;1999.90;999.90;;;2.40;99.90;;;;;;5029766;28;20041;-76
2024/01/07 06:15:58;;;;;;;1999.90;999.90;;;2.20;99.90;;;;;;5028043;28;20032;-78
2024/01/07 06:18:23;;;;;;;1999.90;999.90;;;2.20;99.90;;;;;;5033507;28;20032;-80
2024/01/07 06:20:49;;;;;;;1999.90;999.90;;;2.20;99.90;;;;;;5026855;28;20525;-76
2024/01/07 06:23:15;;;;;;;1999.90;999.90;;;2.20;99.90;;;;;;5028392;28;20541;-76
2024/01/07 06:25:43;;;;;;;1999.90;999.90;;;2.10;99.90;;;;;;5029148;28;20041;-77
2024/01/07 06:28:10;;;;;;;1999.90;999.90;;;2.30;99.90;;;;;;5033796;28;20098;-77
2024/01/07 06:30:35;;;;;;;1999.90;999.90;;;2.30;99.90;;;;;;5030781;28;20034;-79
2024/01/07 06:33:01;;;;;;;1999.90;999.90;;;2.40;99.90;;;;;;5026201;28;20404;-78
2024/01/07 06:35:27;;;;;;;1999.90;999.90;;;2.30;99.90;;;;;;5029125;28;20052;-77
2024/01/07 06:37:53;;;;;;;1999.90;999.90;;;2.40;99.90;;;;;;5028278;28;20029;-78
2024/01/07 06:40:19;;;;;;;1999.90;999.90;;;2.30;99.90;;;;;;5025590;28;20120;-77
2024/01/07 06:42:47;;;;;;;1999.90;999.90;;;2.30;99.90;;;;;;5026392;28;20051;-76
2024/01/07 06:45:14;;;;;;;1999.90;999.90;;;2.40;99.90;;;;;;5027035;28;20034;-77
2024/01/07 06:47:40;;;;;;;1999.90;999.90;;;2.30;99.90;;;;;;5026656;28;20041;-77
2024/01/07 06:50:07;;;;;;;1999.90;999.90;;;2.40;99.90;;;;;;5026754;28;20068;-77
2024/01/07 06:52:32;;;;;;;1999.90;999.90;;;2.20;99.90;;;;;;5027167;28;20057;-78
2024/01/07 06:54:58;;;;;;;1999.90;999.90;;;2.20;99.90;;;;;;5026773;28;20061;-77
2024/01/07 06:57:24;;;;;;;1999.90;999.90;;;2.30;99.90;;;;;;5025589;28;20042;-76
2024/01/07 06:59:49;;;;;;;1999.90;999.90;;;2.30;99.90;;;;;;5026275;28;20130;-78
2024/01/07 07:02:15;;;;;;;1999.90;999.90;;;2.30;99.90;;;;;;5027749;28;20324;-77
2024/01/07 07:04:41;;;;;;;1999.90;999.90;;;2.40;99.90;;;;;;5028027;28;20044;-77
2024/01/07 07:07:07;;;;;;;1999.90;999.90;;;2.40;99.90;;;;;;5027143;28;20084;-77
2024/01/07 07:09:34;;;;;;;1999.90;999.90;;;2.30;99.90;;;;;;5028340;28;20048;-78
2024/01/07 07:12:00;;;;;;;1999.90;999.90;;;2.40;99.90;;;;;;5022146;28;20033;-78
2024/01/07 07:14:28;;;;;;;1999.90;999.90;;;2.50;99.90;;;;;;5026761;28;20044;-79
2024/01/07 07:16:53;;;;;;;1999.90;999.90;;;2.30;99.90;;;;;;5025164;28;20040;-77
2024/01/07 07:19:19;;;;;;;1999.90;999.90;;;2.30;99.90;;;;;;5026836;28;20045;-79
2024/01/07 07:21:45;;;;;;;1999.90;999.90;;;2.50;99.90;;;;;;5027227;28;20140;-76
2024/01/07 07:24:10;;;;;;;1999.90;999.90;;;2.40;99.90;;;;;;5022224;28;20037;-76
2024/01/07 07:26:40;;;;;;;1999.90;999.90;;;2.30;99.90;;;;;;5024857;28;20056;-77
2024/01/07 07:29:12;;;;;;;1999.90;999.90;;;2.50;99.90;;;;;;5024731;28;20041;-75
2024/01/07 07:31:38;;;;;;;1999.90;999.90;;;2.50;99.90;;;;;;5025579;28;20049;-77
2024/01/07 07:34:04;;;;;;;1999.90;999.90;;;2.60;99.90;;;;;;5027114;28;20448;-77
2024/01/07 07:36:30;;;;;;;1999.90;999.90;;;2.50;99.90;;;;;;5025444;28;20068;-78
2024/01/07 07:38:56;;;;;;;1999.90;999.90;;;2.50;99.90;;;;;;5024976;28;20315;-78
2024/01/07 07:41:22;;;;;;;1999.90;999.90;;;2.60;99.90;;;;;;5019083;28;20116;-76
2024/01/07 07:43:47;;;;;;;1999.90;999.90;;;2.60;99.90;;;;;;5024700;28;20029;-77
2024/01/07 07:46:13;;;;;;;1999.90;999.90;;;2.60;99.90;;;;;;5022686;28;20037;-78
2024/01/07 07:48:39;;;;;;;1999.90;999.90;;;2.70;99.90;;;;;;5026102;28;20099;-78
2024/01/07 07:51:05;;;;;;;1999.90;999.90;;;2.60;99.90;;;;;;5024833;28;20116;-77
2024/01/07 07:53:31;;;;;;;1999.90;999.90;;;2.70;99.90;;;;;;5025130;28;20034;-76
2024/01/07 07:55:56;;;;;;;1999.90;999.90;;;2.70;99.90;;;;;;5024190;28;20033;-79
2024/01/07 07:58:22;;;;;;;1999.90;999.90;;;2.70;99.90;;;;;;5022255;28;20037;-78
2024/01/07 08:00:48;;;;;;;1999.90;999.90;;;2.80;99.90;;;;;;5027679;28;20051;-77
2024/01/07 08:03:13;;;;;;;1999.90;999.90;;;2.90;99.90;;;;;;5026352;28;20047;-76
2024/01/07 08:05:41;;;;;;;1999.90;999.90;;;2.70;99.90;;;;;;5024111;28;20064;-76
2024/01/07 08:08:09;;;;;;;1999.90;999.90;;;2.80;99.90;;;;;;5026425;28;20451;-77
2024/01/07 08:10:35;;;;;;;1999.90;999.90;;;2.80;99.90;;;;;;5022992;28;20817;-76
2024/01/07 08:13:01;;;;;;;1999.90;999.90;;;2.80;99.90;;;;;;5022616;28;20038;-76
2024/01/07 08:15:30;;;;;;;1999.90;999.90;;;2.70;99.90;;;;;;5025633;28;20037;-75
2024/01/07 08:17:55;;;;;;;1999.90;999.90;;;2.70;99.90;;;;;;5026200;28;20033;-78
2024/01/07 08:20:21;;;;;;;1999.90;999.90;;;2.80;99.90;;;;;;5027350;28;20132;-76
2024/01/07 08:22:47;;;;;;;1999.90;999.90;;;2.70;99.90;;;;;;5028630;28;20137;-76
2024/01/07 08:25:13;;;;;;;1999.90;999.90;;;2.80;99.90;;;;;;5027439;28;20038;-77
2024/01/07 08:27:41;;;;;;;1999.90;999.90;;;2.90;99.90;;;;;;5026747;28;20041;-76
2024/01/07 08:30:07;;;;;;;1999.90;999.90;;;2.90;99.90;;;;;;5025511;28;20120;-75
2024/01/07 08:32:33;;;;;;;1999.90;999.90;;;2.90;99.90;;;;;;5023771;28;20029;-75
2024/01/07 08:34:58;;;;;;;1999.90;999.90;;;2.90;99.90;;;;;;5022406;28;20044;-78
2024/01/07 08:37:24;;;;;;;1999.90;999.90;;;2.80;99.90;;;;;;5023768;28;20030;-77
2024/01/07 08:39:50;;;;;;;1999.90;999.90;;;2.80;99.90;;;;;;5022977;28;20034;-77
2024/01/07 08:42:15;;;;;;;1999.90;999.90;;;2.70;99.90;;;;;;5025668;28;20052;-76
2024/01/07 08:44:44;;;;;;;1999.90;999.90;;;2.80;99.90;;;;;;5022643;28;20511;-75
2024/01/07 08:47:10;;;;;;;1999.90;999.90;;;2.80;99.90;;;;;;5026461;28;20064;-76
2024/01/07 08:49:38;;;;;;;1999.90;999.90;;;2.80;99.90;;;;;;5022915;28;20127;-77
2024/01/07 08:52:04;;;;;;;1999.90;999.90;;;2.70;99.90;;;;;;5024537;28;20044;-79
2024/01/07 08:54:29;;;;;;;1999.90;999.90;;;2.70;99.90;;;;;;5022466;28;20037;-78
2024/01/07 08:56:55;;;;;;;1999.90;999.90;;;2.70;99.90;;;;;;5026318;28;20072;-77
2024/01/07 08:59:21;;;;;;;1999.90;999.90;;;2.70;99.90;;;;;;5027297;28;20079;-76
2024/01/07 09:01:46;;;;;;;1999.90;999.90;;;2.60;99.90;;;;;;5025426;28;20039;-77
2024/01/07 09:04:12;;;;;;;1999.90;999.90;;;2.70;99.90;;;;;;5025137;28;20124;-76
2024/01/07 09:06:38;;;;;;;1999.90;999.90;;;2.70;99.90;;;;;;5023666;28;20449;-77
2024/01/07 09:09:06;;;;;;;1999.90;999.90;;;2.70;99.90;;;;;;5022772;28;20041;-78
2024/01/07 09:11:32;;;;;;;1999.90;999.90;;;2.80;99.90;;;;;;5026315;28;20116;-78
2024/01/07 09:13:58;;;;;;;1999.90;999.90;;;2.70;99.90;;;;;;5028952;28;20036;-77
2024/01/07 09:16:23;;;;;;;1999.90;999.90;;;2.80;99.90;;;;;;5027065;28;20037;-76
2024/01/07 09:18:50;;;;;;;1999.90;999.90;;;2.80;99.90;;;;;;5027503;28;20038;-77
2024/01/07 09:21:16;;;;;;;1999.90;999.90;;;2.80;99.90;;;;;;5025160;28;20073;-77
2024/01/07 09:23:43;;;;;;;1999.90;999.90;;;2.90;99.90;;;;;;5021991;28;20116;-76
2024/01/07 09:26:09;;;;;;;1999.90;999.90;;;2.90;99.90;;;;;;5023285;28;20162;-76
2024/01/07 09:28:34;;;;;;;1999.90;999.90;;;3.00;99.90;;;;;;5026400;28;20178;-76
2024/01/07 09:31:00;;;;;;;1999.90;999.90;;;2.80;99.90;;;;;;5025289;28;20123;-76
2024/01/07 09:33:26;;;;;;;1999.90;999.90;;;3.00;99.90;;;;;;5024366;28;20070;-76
2024/01/07 09:35:51;;;;;;;1999.90;999.90;;;3.00;99.90;;;;;;5026813;28;20423;-78
2024/01/07 09:38:17;;;;;;;1999.90;999.90;;;3.00;99.90;;;;;;5026324;28;20056;-76
2024/01/07 09:40:43;;;;;;;1999.90;999.90;;;3.00;99.90;;;;;;5027095;28;20029;-78
2024/01/07 09:43:08;;;;;;;1999.90;999.90;;;3.00;99.90;;;;;;5043108;28;20034;-76
2024/01/07 09:45:38;;;;;;;1999.90;999.90;;;3.00;99.90;;;;;;5025278;28;20415;-76
2024/01/07 09:48:04;;;;;;;1999.90;999.90;;;3.00;99.90;;;;;;5028213;28;20076;-78
2024/01/07 09:50:30;;;;;;;1999.90;999.90;;;2.90;99.90;;;;;;5029917;28;20037;-77
2024/01/07 09:53:01;;;;;;;1999.90;999.90;;;2.90;99.90;;;;;;5032038;28;20033;-77
2024/01/07 09:55:33;;;;;;;1999.90;999.90;;;2.80;99.90;;;;;;5030588;28;20029;-76
2024/01/07 09:57:59;;;;;;;1999.90;999.90;;;2.60;99.90;;;;;;5028640;28;20165;-76
2024/01/07 10:00:27;;;;;;;1999.90;999.90;;;2.50;99.90;;;;;;5030481;28;20108;-77
2024/01/07 10:02:53;;;;;;;1999.90;999.90;;;2.40;99.90;;;;;;5027112;28;20033;-77
2024/01/07 10:05:19;;;;;;;1999.90;999.90;;;2.40;99.90;;;;;;5030575;28;20156;-78
2024/01/07 10:07:44;;;;;;;1999.90;999.90;;;2.30;99.90;;;;;;5026030;28;20483;-77
2024/01/07 10:10:17;;;;;;;1999.90;999.90;;;2.30;99.90;;;;;;5029063;28;20048;-78
2024/01/07 10:12:47;;;;;;;1999.90;999.90;;;2.30;99.90;;;;;;5024933;28;20419;-78
2024/01/07 10:15:13;;;;;;;1999.90;999.90;;;2.20;99.90;;;;;;5030114;28;20025;-77
2024/01/07 10:17:45;;;;;;;1999.90;999.90;;;2.20;99.90;;;;;;5025228;28;20457;-76
2024/01/07 10:20:11;;;;;;;1999.90;999.90;;;2.20;99.90;;;;;;5028858;28;20136;-76
2024/01/07 10:22:39;;;;;;;1999.90;999.90;;;2.10;99.90;;;;;;5026654;28;20129;-78
2024/01/07 10:25:09;;;;;;;1999.90;999.90;;;2.30;99.90;;;;;;5028062;28;20128;-78
2024/01/07 10:27:36;;;;;;;1999.90;999.90;;;2.20;99.90;;;;;;5027940;28;20044;-77
2024/01/07 10:30:03;;;;;;;1999.90;999.90;;;2.20;99.90;;;;;;5031539;28;20053;-76
2024/01/07 10:32:29;;;;;;;1999.90;999.90;;;2.10;99.90;;;;;;5026382;28;20030;-76
2024/01/07 10:35:04;;;;;;;1999.90;999.90;;;2.10;99.90;;;;;;5029847;28;20492;-76
2024/01/07 10:37:30;;;;;;;1999.90;999.90;;;2.30;99.90;;;;;;5029168;28;20034;-77
2024/01/07 10:40:04;;;;;;;1999.90;999.90;;;2.40;99.90;;;;;;5024481;28;20033;-76
2024/01/07 10:42:32;;;;;;;1999.90;999.90;;;2.50;99.90;;;;;;5027494;28;20033;-77
2024/01/07 10:44:58;;;;;;;1999.90;999.90;;;2.60;99.90;;;;;;5026632;28;20095;-78
2024/01/07 10:47:31;;;;;;;1999.90;999.90;;;2.50;99.90;;;;;;5026896;28;20458;-78
2024/01/07 10:49:58;;;;;;;1999.90;999.90;;;2.70;99.90;;;;;;5025925;28;20080;-79
2024/01/07 10:52:26;;;;;;;1999.90;999.90;;;2.60;99.90;;;;;;5025307;28;20045;-79
2024/01/07 10:54:53;;;;;;;1999.90;999.90;;;2.60;99.90;;;;;;5025566;28;20060;-77
2024/01/07 10:57:34;;;;;;;1999.90;999.90;;;2.40;99.90;;;;;;5026456;28;20448;-77
2024/01/07 11:00:00;;;;;;;;;;;2.60;99.90;;;;;;5028024;28;20652;-78
2024/01/07 11:02:26;;;;;;;1999.90;999.90;;;2.50;99.90;;;;;;5027821;28;19925;-78
2024/01/07 11:04:57;;;;;;;1999.90;999.90;;;2.40;99.90;;;;;;5025317;28;20037;-80
2024/01/07 11:07:34;;;;;;;1999.90;999.90;;;2.50;99.90;;;;;;5026818;28;20053;-77
2024/01/07 11:10:10;;;;;;;1999.90;999.90;;;2.40;99.90;;;;;;5027600;28;20030;-78
2024/01/07 11:12:36;;;;;;;1999.90;999.90;;;2.20;99.90;;;;;;5024996;28;20033;-77
2024/01/07 11:15:02;;;;;;;1999.90;999.90;;;2.30;99.90;;;;;;5027449;28;20029;-80
2024/01/07 11:17:37;;;;;;;1999.90;999.90;;;2.30;99.90;;;;;;5022881;28;20118;-78
2024/01/07 11:20:08;;;;;;;1999.90;999.90;;;2.20;99.90;;;;;;5025686;28;20091;-78
2024/01/07 11:22:33;;;;;;;1999.90;999.90;;;2.30;99.90;;;;;;5027019;28;20025;-77
2024/01/07 11:25:02;;;;;;;1999.90;999.90;;;2.20;99.90;;;;;;5023964;28;20041;-77
2024/01/07 11:27:32;;;;;;;1999.90;999.90;;;2.20;99.90;;;;;;5024526;28;20068;-78
2024/01/07 11:30:17;;;;;;;1999.90;999.90;;;2.20;99.90;;;;;;5025943;28;20427;-77
2024/01/07 11:32:46;;;;;;;1999.90;999.90;;;2.10;99.90;;;;;;5026469;28;20032;-77
2024/01/07 11:35:13;;;;;;;1999.90;999.90;;;2.20;99.90;;;;;;5023708;28;20030;-78
2024/01/07 11:37:41;;;;;;;1999.90;999.90;;;2.20;99.90;;;;;;5025357;28;20436;-79
2024/01/07 11:40:08;;;;;;;1999.90;999.90;;;2.20;99.90;;;;;;5024251;28;20083;-77
2024/01/07 11:42:34;;;;;;;1999.90;999.90;;;2.20;99.90;;;;;;5025602;28;20095;-80
2024/01/07 11:45:00;;;;;;;1999.90;999.90;;;2.10;99.90;;;;;;5023326;28;20029;-78
2024/01/07 11:47:28;;;;;;;1999.90;999.90;;;2.20;99.90;;;;;;5022905;28;20484;-77
2024/01/07 11:49:54;;;;;;;1999.90;999.90;;;2.20;99.90;;;;;;5025546;28;20030;-81
2024/01/07 11:52:20;;;;;;;1999.90;999.90;;;2.10;99.90;;;;;;5022427;28;20033;-78
2024/01/07 11:54:47;;;;;;;1999.90;999.90;;;2.00;99.90;;;;;;5026808;28;20543;-81
2024/01/07 11:57:13;;;;;;;1999.90;999.90;;;2.00;99.90;;;;;;5024888;28;20507;-78
2024/01/07 11:59:39;;;;;;;1999.90;999.90;;;2.10;99.90;;;;;;5023992;28;20037;-78
2024/01/07 12:02:05;;;;;;;1999.90;999.90;;;2.10;99.90;;;;;;5025342;28;20041;-77
2024/01/07 12:04:32;;;;;;;1999.90;999.90;;;2.10;99.90;;;;;;5023491;28;20037;-78